createdAt,value
2022-10-26T00:00:13.884Z,11.00
2022-10-26T00:02:40.803Z,11.00
2022-10-26T00:05:07.855Z,11.10
2022-10-26T00:07:34.845Z,11.00
2022-10-26T00:10:01.754Z,10.90
2022-10-26T00:12:28.603Z,10.90
2022-10-26T00:14:55.483Z,10.90
2022-10-26T00:17:22.354Z,10.90
2022-10-26T00:19:49.220Z,10.90
2022-10-26T00:22:16.049Z,10.90
2022-10-26T00:24:42.974Z,10.90
2022-10-26T00:27:09.798Z,10.90
2022-10-26T00:29:36.672Z,10.90
2022-10-26T00:32:03.582Z,10.80
2022-10-26T00:34:30.362Z,10.70
2022-10-26T00:36:57.280Z,10.80
2022-10-26T00:39:24.222Z,10.80
2022-10-26T00:41:51.102Z,10.80
2022-10-26T00:44:36.935Z,10.80
2022-10-26T00:47:04.851Z,10.70
2022-10-26T00:49:31.686Z,10.70
2022-10-26T00:51:58.762Z,10.70
2022-10-26T00:54:25.658Z,10.70
2022-10-26T00:56:53.751Z,10.70
2022-10-26T00:59:21.696Z,10.60
2022-10-26T01:01:49.112Z,10.70
2022-10-26T01:04:16.437Z,10.70
2022-10-26T01:06:43.620Z,10.60
2022-10-26T01:09:11.027Z,10.60
2022-10-26T01:11:37.903Z,10.50
2022-10-26T01:14:06.423Z,10.50
2022-10-26T01:16:45.650Z,10.50
2022-10-26T01:19:30.581Z,10.60
2022-10-26T01:21:57.394Z,10.60
2022-10-26T01:24:42.707Z,10.60
2022-10-26T01:27:22.203Z,10.50
2022-10-26T01:30:00.058Z,10.50
2022-10-26T01:32:28.460Z,10.50
2022-10-26T01:35:01.544Z,10.50
2022-10-26T01:37:30.443Z,10.50
2022-10-26T01:40:04.526Z,10.50
2022-10-26T01:42:32.204Z,10.50
2022-10-26T01:45:04.884Z,10.40
2022-10-26T01:47:33.892Z,10.40
2022-10-26T01:50:02.461Z,10.40
2022-10-26T01:52:29.404Z,10.40
2022-10-26T01:55:07.138Z,10.40
2022-10-26T01:57:35.718Z,10.40
2022-10-26T02:00:05.439Z,10.40
2022-10-26T02:02:38.344Z,10.40
2022-10-26T02:05:23.287Z,10.40
2022-10-26T02:07:56.502Z,10.30
2022-10-26T02:10:26.396Z,10.30
2022-10-26T02:13:02.253Z,10.30
2022-10-26T02:15:34.985Z,10.30
2022-10-26T02:18:11.279Z,10.30
2022-10-26T02:20:40.723Z,10.30
2022-10-26T02:23:08.142Z,10.30
2022-10-26T02:25:37.761Z,10.20
2022-10-26T02:28:08.848Z,10.10
2022-10-26T02:30:36.593Z,10.10
2022-10-26T02:33:04.561Z,10.10
2022-10-26T02:35:32.419Z,10.10
2022-10-26T02:38:01.140Z,10.20
2022-10-26T02:40:28.936Z,10.20
2022-10-26T02:42:57.863Z,10.20
2022-10-26T02:45:27.123Z,10.10
2022-10-26T02:47:54.580Z,10.10
2022-10-26T02:50:24.196Z,10.10
2022-10-26T02:52:56.896Z,10.10
2022-10-26T02:55:26.143Z,10.00
2022-10-26T02:57:56.059Z,10.00
2022-10-26T03:00:22.996Z,10.00
2022-10-26T03:02:54.983Z,10.00
2022-10-26T03:05:24.149Z,10.00
2022-10-26T03:07:51.014Z,10.10
2022-10-26T03:10:17.968Z,10.00
2022-10-26T03:12:44.927Z,10.10
2022-10-26T03:15:11.749Z,10.10
2022-10-26T03:17:38.743Z,10.10
2022-10-26T03:20:05.900Z,10.10
2022-10-26T03:22:32.864Z,10.00
2022-10-26T03:24:59.827Z,10.00
2022-10-26T03:27:27.266Z,10.00
2022-10-26T03:29:54.302Z,10.00
2022-10-26T03:32:21.199Z,10.00
2022-10-26T03:34:48.030Z,10.00
2022-10-26T03:37:14.919Z,9.90
2022-10-26T03:39:41.831Z,9.90
2022-10-26T03:42:08.619Z,9.90
2022-10-26T03:44:35.456Z,9.90
2022-10-26T03:47:02.361Z,9.80
2022-10-26T03:49:29.190Z,9.90
2022-10-26T03:51:56.124Z,9.90
2022-10-26T03:54:22.977Z,9.90
2022-10-26T03:56:52.698Z,9.90
2022-10-26T03:59:21.934Z,10.00
2022-10-26T04:01:51.492Z,10.00
2022-10-26T04:04:21.065Z,10.00
2022-10-26T04:06:48.193Z,10.10
2022-10-26T04:09:15.036Z,10.10
2022-10-26T04:11:41.912Z,10.00
2022-10-26T04:14:08.744Z,10.00
2022-10-26T04:16:35.612Z,10.10
2022-10-26T04:19:02.477Z,10.20
2022-10-26T04:21:29.380Z,10.20
2022-10-26T04:23:56.215Z,10.10
2022-10-26T04:26:23.095Z,10.10
2022-10-26T04:28:49.894Z,10.10
2022-10-26T04:31:16.841Z,10.10
2022-10-26T04:33:43.656Z,10.20
2022-10-26T04:36:10.584Z,10.20
2022-10-26T04:38:37.424Z,10.10
2022-10-26T04:41:04.414Z,10.10
2022-10-26T04:43:31.314Z,10.00
2022-10-26T04:45:58.482Z,10.00
2022-10-26T04:51:00.681Z,10.00
2022-10-26T04:53:28.234Z,10.00
2022-10-26T04:55:58.833Z,10.00
2022-10-26T04:58:25.831Z,10.00
2022-10-26T05:00:52.688Z,10.00
2022-10-26T05:03:19.619Z,10.00
2022-10-26T05:05:47.983Z,10.00
2022-10-26T05:08:15.074Z,10.10
2022-10-26T05:10:42.229Z,10.00
2022-10-26T05:13:09.407Z,10.00
2022-10-26T05:15:36.308Z,10.10
2022-10-26T05:18:05.638Z,10.00
2022-10-26T05:20:33.592Z,10.00
2022-10-26T05:23:07.563Z,10.00
2022-10-26T05:25:35.496Z,10.00
2022-10-26T05:28:03.252Z,10.00
2022-10-26T05:30:31.777Z,10.00
2022-10-26T05:32:59.541Z,9.90
2022-10-26T05:35:26.552Z,10.00
2022-10-26T05:37:53.548Z,10.00
2022-10-26T05:40:20.839Z,10.00
2022-10-26T05:42:48.022Z,10.00
2022-10-26T05:45:15.186Z,10.00
2022-10-26T05:47:42.712Z,10.00
2022-10-26T05:50:10.173Z,10.10
2022-10-26T05:52:40.642Z,10.10
2022-10-26T05:55:08.388Z,10.10
2022-10-26T05:57:35.976Z,10.10
2022-10-26T06:00:06.807Z,10.00
2022-10-26T06:02:39.451Z,10.00
2022-10-26T06:05:09.446Z,9.90
2022-10-26T06:07:36.449Z,9.90
2022-10-26T06:10:04.071Z,9.90
2022-10-26T06:12:31.095Z,9.90
2022-10-26T06:14:58.256Z,9.90
2022-10-26T06:17:43.428Z,9.90
2022-10-26T06:20:25.408Z,9.80
2022-10-26T06:22:52.461Z,9.80
2022-10-26T06:25:19.508Z,9.80
2022-10-26T06:27:53.341Z,9.80
2022-10-26T06:30:23.399Z,9.80
2022-10-26T06:32:57.383Z,9.70
2022-10-26T06:35:43.262Z,9.80
2022-10-26T06:38:12.083Z,9.70
2022-10-26T06:40:40.665Z,9.80
2022-10-26T06:43:17.224Z,9.70
2022-10-26T06:45:45.555Z,9.70
2022-10-26T06:48:17.000Z,9.80
2022-10-26T06:50:50.391Z,9.80
2022-10-26T06:53:26.772Z,9.70
2022-10-26T06:55:54.033Z,9.80
2022-10-26T06:58:24.706Z,9.80
2022-10-26T07:00:53.643Z,9.90
2022-10-26T07:03:20.749Z,9.90
2022-10-26T07:05:47.936Z,9.90
2022-10-26T07:08:14.875Z,9.90
2022-10-26T07:10:42.435Z,9.80
2022-10-26T07:13:10.136Z,9.90
2022-10-26T07:15:37.748Z,9.80
2022-10-26T07:18:08.074Z,9.90
2022-10-26T07:20:39.055Z,9.90
2022-10-26T07:23:11.668Z,10.00
2022-10-26T07:25:40.819Z,9.90
2022-10-26T07:28:10.587Z,9.90
2022-10-26T07:30:38.426Z,9.80
2022-10-26T07:33:14.746Z,9.90
2022-10-26T07:35:41.880Z,10.00
2022-10-26T07:38:09.202Z,9.90
2022-10-26T07:40:36.616Z,9.90
2022-10-26T07:43:03.507Z,9.80
2022-10-26T07:45:30.469Z,9.80
2022-10-26T07:47:57.335Z,9.90
2022-10-26T07:50:24.877Z,9.90
2022-10-26T07:52:51.998Z,10.00
2022-10-26T07:55:20.319Z,10.00
2022-10-26T07:57:49.727Z,9.90
2022-10-26T08:00:21.571Z,9.90
2022-10-26T08:02:48.514Z,9.90
2022-10-26T08:05:15.390Z,10.00
2022-10-26T08:07:45.495Z,9.90
2022-10-26T08:10:13.141Z,9.90
2022-10-26T08:12:40.439Z,10.00
2022-10-26T08:15:08.478Z,10.00
2022-10-26T08:17:35.395Z,9.90
2022-10-26T08:20:02.259Z,9.90
2022-10-26T08:22:30.811Z,9.90
2022-10-26T08:24:57.766Z,9.90
2022-10-26T08:27:24.639Z,9.90
2022-10-26T08:29:51.531Z,9.90
2022-10-26T08:32:18.433Z,9.90
2022-10-26T08:34:45.310Z,9.90
2022-10-26T08:37:12.214Z,9.90
2022-10-26T08:39:39.199Z,10.00
2022-10-26T08:42:19.590Z,10.10
2022-10-26T08:44:47.427Z,10.10
2022-10-26T08:47:14.405Z,10.10
2022-10-26T08:50:10.924Z,10.00
2022-10-26T08:52:49.431Z,10.00
2022-10-26T08:55:18.356Z,10.00
2022-10-26T08:57:48.201Z,10.00
2022-10-26T09:00:15.276Z,10.00
2022-10-26T09:02:42.247Z,10.10
2022-10-26T09:05:16.340Z,10.10
2022-10-26T09:07:43.173Z,10.10
2022-10-26T09:10:34.068Z,10.20
2022-10-26T09:13:17.463Z,10.30
2022-10-26T09:15:50.115Z,10.40
2022-10-26T09:18:27.807Z,10.50
2022-10-26T09:21:03.650Z,10.60
2022-10-26T09:23:33.558Z,10.70
2022-10-26T09:26:01.722Z,10.70
2022-10-26T09:28:36.381Z,10.80
2022-10-26T09:31:04.412Z,10.70
2022-10-26T09:33:32.540Z,10.80
2022-10-26T09:36:01.619Z,10.90
2022-10-26T09:38:28.475Z,10.90
2022-10-26T09:41:04.364Z,10.80
2022-10-26T09:43:34.207Z,10.80
2022-10-26T09:46:01.090Z,10.80
2022-10-26T09:48:31.117Z,10.80
2022-10-26T09:51:03.465Z,10.80
2022-10-26T09:53:32.235Z,10.70
2022-10-26T09:56:05.774Z,10.80
2022-10-26T09:58:38.076Z,10.70
2022-10-26T10:01:05.262Z,10.80
2022-10-26T10:03:32.852Z,10.80
2022-10-26T10:06:19.328Z,10.90
2022-10-26T10:09:05.161Z,10.90
2022-10-26T10:11:39.501Z,10.90
2022-10-26T10:14:14.001Z,10.90
2022-10-26T10:16:41.320Z,11.00
2022-10-26T10:19:21.236Z,11.00
2022-10-26T10:21:51.960Z,10.90
2022-10-26T10:24:29.275Z,10.90
2022-10-26T10:26:57.563Z,10.90
2022-10-26T10:29:32.806Z,10.90
2022-10-26T10:32:01.176Z,11.00
2022-10-26T10:34:30.447Z,11.10
2022-10-26T10:36:57.638Z,11.10
2022-10-26T10:39:28.813Z,11.20
2022-10-26T10:41:55.721Z,11.20
2022-10-26T10:44:29.831Z,11.20
2022-10-26T10:47:02.874Z,11.20
2022-10-26T10:49:30.470Z,11.10
2022-10-26T10:51:57.473Z,11.10
2022-10-26T10:54:35.329Z,11.20
2022-10-26T10:57:08.649Z,11.20
2022-10-26T11:00:01.723Z,11.20
2022-10-26T11:02:47.422Z,11.20
2022-10-26T11:05:23.319Z,11.20
2022-10-26T11:08:12.497Z,11.20
2022-10-26T11:10:49.168Z,11.20
2022-10-26T11:13:20.333Z,11.10
2022-10-26T11:15:49.054Z,11.20
2022-10-26T11:18:19.707Z,11.20
2022-10-26T11:20:50.115Z,11.30
2022-10-26T11:23:21.040Z,11.30
2022-10-26T11:25:50.371Z,11.20
2022-10-26T11:28:27.940Z,11.20
2022-10-26T11:30:57.891Z,11.30
2022-10-26T11:33:51.066Z,11.30
2022-10-26T11:36:21.994Z,11.40
2022-10-26T11:38:58.234Z,11.40
2022-10-26T11:41:35.171Z,11.40
2022-10-26T11:44:06.428Z,11.50
2022-10-26T11:46:39.045Z,11.50
2022-10-26T11:49:05.958Z,11.50
2022-10-26T11:51:36.240Z,11.50
2022-10-26T11:54:05.959Z,11.60
2022-10-26T11:56:36.103Z,11.60
2022-10-26T12:01:34.960Z,11.60
2022-10-26T12:04:03.490Z,11.60
2022-10-26T12:06:31.787Z,11.60
2022-10-26T12:09:06.463Z,11.60
2022-10-26T12:11:39.241Z,11.60
2022-10-26T12:14:16.081Z,11.60
2022-10-26T12:17:01.828Z,11.70
2022-10-26T12:19:48.367Z,11.60
2022-10-26T12:22:17.498Z,11.50
2022-10-26T12:24:47.665Z,11.60
2022-10-26T12:27:49.231Z,11.60
2022-10-26T12:30:19.201Z,11.50
2022-10-26T12:32:46.904Z,11.60
2022-10-26T12:35:30.884Z,11.60
2022-10-26T12:37:58.295Z,11.70
2022-10-26T12:40:31.486Z,11.60
2022-10-26T12:42:59.034Z,11.70
2022-10-26T12:45:25.949Z,11.60
2022-10-26T12:47:52.797Z,11.60
2022-10-26T12:50:23.986Z,11.70
2022-10-26T12:52:56.403Z,11.70
2022-10-26T12:55:50.788Z,11.70
2022-10-26T12:58:36.237Z,11.70
2022-10-26T13:01:03.677Z,11.80
2022-10-26T13:03:35.029Z,11.70
2022-10-26T13:06:04.757Z,11.60
2022-10-26T13:08:56.220Z,11.60
2022-10-26T13:11:29.707Z,11.70
2022-10-26T13:13:59.038Z,11.70
2022-10-26T13:16:27.875Z,11.80
2022-10-26T13:18:55.093Z,11.70
2022-10-26T13:21:23.006Z,11.80
2022-10-26T13:23:57.016Z,11.80
2022-10-26T13:26:28.032Z,11.80
2022-10-26T13:28:55.859Z,11.80
2022-10-26T13:31:31.833Z,11.80
2022-10-26T13:34:03.848Z,11.70
2022-10-26T13:36:36.521Z,11.70
2022-10-26T13:39:06.947Z,11.70
2022-10-26T13:41:34.901Z,11.70
2022-10-26T13:44:04.792Z,11.70
2022-10-26T13:46:34.895Z,11.70
2022-10-26T13:49:06.214Z,11.60
2022-10-26T13:51:40.733Z,11.60
2022-10-26T13:54:13.772Z,11.60
2022-10-26T13:56:44.637Z,11.50
2022-10-26T13:59:13.269Z,11.50
2022-10-26T14:01:40.267Z,11.60
2022-10-26T14:04:17.587Z,11.60
2022-10-26T14:06:49.752Z,11.60
2022-10-26T14:09:18.239Z,11.70
2022-10-26T14:11:49.444Z,11.60
2022-10-26T14:14:21.819Z,11.60
2022-10-26T14:16:49.548Z,11.70
2022-10-26T14:19:29.990Z,11.80
2022-10-26T14:21:57.405Z,11.70
2022-10-26T14:24:45.275Z,11.70
2022-10-26T14:27:17.270Z,11.70
2022-10-26T14:29:49.815Z,11.70
2022-10-26T14:32:25.240Z,11.60
2022-10-26T14:34:52.141Z,11.60
2022-10-26T14:37:24.131Z,11.60
2022-10-26T14:39:51.166Z,11.70
2022-10-26T14:42:27.195Z,11.60
2022-10-26T14:44:54.257Z,11.60
2022-10-26T14:47:25.898Z,11.60
2022-10-26T14:49:52.944Z,11.60
2022-10-26T14:52:27.632Z,11.60
2022-10-26T14:55:05.510Z,11.70
2022-10-26T14:57:36.876Z,11.70
2022-10-26T15:00:23.999Z,11.70
2022-10-26T15:05:23.905Z,11.60
2022-10-26T15:07:51.987Z,11.70
2022-10-26T15:10:45.855Z,11.60
2022-10-26T15:13:15.642Z,11.60
2022-10-26T15:15:45.594Z,11.70
2022-10-26T15:18:21.342Z,11.70
2022-10-26T15:20:49.139Z,11.60
2022-10-26T15:23:16.600Z,11.50
2022-10-26T15:25:51.175Z,11.60
2022-10-26T15:28:22.900Z,11.60
2022-10-26T15:31:08.402Z,11.50
2022-10-26T15:33:35.523Z,11.60
2022-10-26T15:36:08.436Z,11.70
2022-10-26T15:38:35.554Z,11.60
2022-10-26T15:41:03.735Z,11.60
2022-10-26T15:43:30.750Z,11.50
2022-10-26T15:45:57.648Z,11.60
2022-10-26T15:48:29.445Z,11.70
2022-10-26T15:50:56.453Z,11.60
2022-10-26T15:53:29.157Z,11.60
2022-10-26T15:55:59.868Z,11.60
2022-10-26T15:58:27.792Z,11.50
2022-10-26T16:00:54.758Z,11.50
2022-10-26T16:03:22.726Z,11.50
2022-10-26T16:05:51.899Z,11.50
2022-10-26T16:08:19.167Z,11.50
2022-10-26T16:10:46.271Z,11.50
2022-10-26T16:13:13.883Z,11.60
2022-10-26T16:15:40.912Z,11.50
2022-10-26T16:18:07.897Z,11.50
2022-10-26T16:20:34.871Z,11.50
2022-10-26T16:23:06.684Z,11.60
2022-10-26T16:25:35.400Z,11.50
2022-10-26T16:28:02.804Z,11.50
2022-10-26T16:30:30.831Z,11.50
2022-10-26T16:32:58.106Z,11.50
2022-10-26T16:35:25.037Z,11.60
2022-10-26T16:37:51.880Z,11.50
2022-10-26T16:40:19.061Z,11.50
2022-10-26T16:42:46.713Z,11.50
2022-10-26T16:45:14.469Z,11.40
2022-10-26T16:47:41.532Z,11.40
2022-10-26T16:50:09.013Z,11.40
2022-10-26T16:52:36.360Z,11.30
2022-10-26T16:55:03.993Z,11.30
2022-10-26T16:57:30.868Z,11.30
2022-10-26T16:59:57.943Z,11.30
2022-10-26T17:02:24.866Z,11.30
2022-10-26T17:04:51.897Z,11.30
2022-10-26T17:07:18.797Z,11.30
2022-10-26T17:09:45.568Z,11.30
2022-10-26T17:12:12.424Z,11.30
2022-10-26T17:14:39.218Z,11.20
2022-10-26T17:17:06.134Z,11.30
2022-10-26T17:19:33.029Z,11.40
2022-10-26T17:22:01.774Z,11.40
2022-10-26T17:24:30.676Z,11.40
2022-10-26T17:26:57.649Z,11.30
2022-10-26T17:29:24.406Z,11.30
2022-10-26T17:31:51.300Z,11.30
2022-10-26T17:34:18.302Z,11.30
2022-10-26T17:36:45.108Z,11.20
2022-10-26T17:39:12.014Z,11.30
2022-10-26T17:41:38.798Z,11.20
2022-10-26T17:44:05.709Z,11.30
2022-10-26T17:46:32.558Z,11.30
2022-10-26T17:49:00.341Z,11.30
2022-10-26T17:51:28.645Z,11.30
2022-10-26T17:53:55.719Z,11.30
2022-10-26T17:56:23.657Z,11.30
2022-10-26T17:58:57.519Z,11.20
2022-10-26T18:01:24.869Z,11.20
2022-10-26T18:03:51.932Z,11.20
2022-10-26T18:06:19.078Z,11.20
2022-10-26T18:08:45.998Z,11.20
2022-10-26T18:11:14.532Z,11.10
2022-10-26T18:13:41.389Z,11.00
2022-10-26T18:16:18.744Z,11.00
2022-10-26T18:18:52.106Z,11.00
2022-10-26T18:21:19.905Z,11.00
2022-10-26T18:23:47.102Z,11.00
2022-10-26T18:26:17.979Z,10.90
2022-10-26T18:28:44.903Z,10.90
2022-10-26T18:31:13.245Z,10.90
2022-10-26T18:33:40.207Z,10.90
2022-10-26T18:36:08.436Z,10.80
2022-10-26T18:38:35.956Z,10.80
2022-10-26T18:41:03.127Z,10.80
2022-10-26T18:43:30.416Z,10.80
2022-10-26T18:46:04.423Z,10.80
2022-10-26T18:48:31.564Z,10.80
2022-10-26T18:51:02.571Z,10.70
2022-10-26T18:53:29.639Z,10.70
2022-10-26T18:55:59.962Z,10.60
2022-10-26T18:58:29.727Z,10.60
2022-10-26T19:01:04.600Z,10.60
2022-10-26T19:03:31.566Z,10.50
2022-10-26T19:05:58.369Z,10.50
2022-10-26T19:08:27.912Z,10.50
2022-10-26T19:10:54.864Z,10.50
2022-10-26T19:13:21.647Z,10.50
2022-10-26T19:15:48.633Z,10.50
2022-10-26T19:18:15.570Z,10.50
2022-10-26T19:20:45.125Z,10.50
2022-10-26T19:23:14.264Z,10.50
2022-10-26T19:25:41.047Z,10.40
2022-10-26T19:28:08.053Z,10.40
2022-10-26T19:30:38.440Z,10.40
2022-10-26T19:33:05.269Z,10.30
2022-10-26T19:35:32.195Z,10.30
2022-10-26T19:37:59.071Z,10.30
2022-10-26T19:40:25.937Z,10.30
2022-10-26T19:42:53.310Z,10.30
2022-10-26T19:45:20.182Z,10.30
2022-10-26T19:47:47.048Z,10.30
2022-10-26T19:50:13.962Z,10.20
2022-10-26T19:52:41.453Z,10.20
2022-10-26T19:55:08.866Z,10.20
2022-10-26T19:57:35.633Z,10.20
2022-10-26T20:00:02.476Z,10.20
2022-10-26T20:02:29.318Z,10.10
2022-10-26T20:04:56.101Z,10.10
2022-10-26T20:07:22.932Z,10.10
2022-10-26T20:09:49.691Z,10.00
2022-10-26T20:12:16.528Z,10.20
2022-10-26T20:14:43.292Z,10.20
2022-10-26T20:17:10.112Z,10.10
2022-10-26T20:19:36.885Z,10.00
2022-10-26T20:22:03.836Z,10.00
2022-10-26T20:24:30.599Z,10.00
2022-10-26T20:26:57.383Z,10.00
2022-10-26T20:29:24.240Z,9.90
2022-10-26T20:31:55.861Z,9.90
2022-10-26T20:34:23.029Z,9.80
2022-10-26T20:36:50.538Z,9.70
2022-10-26T20:39:17.702Z,9.70
2022-10-26T20:41:44.769Z,9.70
2022-10-26T20:44:26.932Z,9.70
2022-10-26T20:46:53.836Z,9.70
2022-10-26T20:49:20.892Z,9.60
2022-10-26T20:52:08.563Z,9.60
2022-10-26T20:54:41.843Z,9.50
2022-10-26T20:57:13.017Z,9.50
2022-10-26T20:59:42.927Z,9.50
2022-10-26T21:02:10.393Z,9.40
2022-10-26T21:04:37.236Z,9.30
2022-10-26T21:07:04.228Z,9.30
2022-10-26T21:09:34.202Z,9.20
2022-10-26T21:12:03.562Z,9.20
2022-10-26T21:14:30.416Z,9.20
2022-10-26T21:16:57.210Z,9.20
2022-10-26T21:19:24.019Z,9.10
2022-10-26T21:21:50.929Z,9.10
2022-10-26T21:24:17.684Z,9.00
2022-10-26T21:26:44.581Z,9.00
2022-10-26T21:29:11.536Z,8.90
2022-10-26T21:31:38.395Z,8.90
2022-10-26T21:34:05.319Z,8.90
2022-10-26T21:36:32.158Z,8.90
2022-10-26T21:38:58.932Z,8.80
2022-10-26T21:41:25.945Z,8.80
2022-10-26T21:44:03.272Z,8.80
2022-10-26T21:46:39.618Z,8.70
2022-10-26T21:49:06.437Z,8.70
2022-10-26T21:51:35.069Z,8.70
2022-10-26T21:54:02.098Z,8.60
2022-10-26T21:56:28.940Z,8.60
2022-10-26T21:58:55.753Z,8.60
2022-10-26T22:01:23.108Z,8.50
2022-10-26T22:03:50.153Z,8.40
2022-10-26T22:08:46.631Z,8.30
2022-10-26T22:11:15.851Z,8.30
2022-10-26T22:13:43.316Z,8.30
2022-10-26T22:16:14.460Z,8.30
2022-10-26T22:18:42.765Z,8.20
2022-10-26T22:21:09.992Z,8.10
2022-10-26T22:23:38.510Z,8.10
2022-10-26T22:26:09.971Z,8.10
2022-10-26T22:28:41.598Z,8.00
2022-10-26T22:31:16.786Z,7.90
2022-10-26T22:33:43.864Z,7.80
2022-10-26T22:36:11.965Z,7.70
2022-10-26T22:38:39.219Z,7.70
2022-10-26T22:41:06.188Z,7.70
2022-10-26T22:43:33.289Z,7.70
2022-10-26T22:46:04.272Z,7.60
2022-10-26T22:48:31.722Z,7.60
2022-10-26T22:50:58.545Z,7.50
2022-10-26T22:53:25.564Z,7.50
2022-10-26T22:55:52.383Z,7.50
2022-10-26T22:58:19.212Z,7.40
2022-10-26T23:00:46.151Z,7.40
2022-10-26T23:03:13.066Z,7.40
2022-10-26T23:05:47.247Z,7.40
2022-10-26T23:08:14.409Z,7.40
2022-10-26T23:10:41.250Z,7.40
2022-10-26T23:13:08.154Z,7.30
2022-10-26T23:15:35.096Z,7.30
2022-10-26T23:18:01.952Z,7.20
2022-10-26T23:20:28.848Z,7.20
2022-10-26T23:22:55.611Z,7.30
2022-10-26T23:25:22.431Z,7.20
2022-10-26T23:27:49.337Z,7.20
2022-10-26T23:30:16.246Z,7.30
2022-10-26T23:32:43.222Z,7.30
2022-10-26T23:35:10.269Z,7.20
2022-10-26T23:37:37.465Z,7.20
2022-10-26T23:40:04.648Z,7.20
2022-10-26T23:42:31.447Z,7.20
2022-10-26T23:44:58.183Z,7.10
2022-10-26T23:47:24.992Z,7.10
2022-10-26T23:49:52.621Z,7.10
2022-10-26T23:52:19.435Z,7.10
2022-10-26T23:54:46.434Z,7.00
2022-10-26T23:57:13.461Z,7.10
2022-10-26T23:59:40.361Z,7.00
